sensor_id;sensor_type;location;lat;lon;timestamp;temperature;humidity
61255;DHT22;47128;47.530;8.584;2023-04-25T00:02:01;9.30;99.90
61255;DHT22;47128;47.530;8.584;2023-04-25T00:04:28;9.30;99.90
61255;DHT22;47128;47.530;8.584;2023-04-25T00:06:55;9.40;99.90
61255;DHT22;47128;47.530;8.584;2023-04-25T00:15:23;9.20;99.90
61255;DHT22;47128;47.530;8.584;2023-04-25T00:29:44;9.10;99.90
61255;DHT22;47128;47.530;8.584;2023-04-25T00:32:10;9.10;99.90
61255;DHT22;47128;47.530;8.584;2023-04-25T00:40:43;9.20;99.90
61255;DHT22;47128;47.530;8.584;2023-04-25T00:43:09;9.20;99.90
61255;DHT22;47128;47.530;8.584;2023-04-25T00:48:30;9.10;99.90
61255;DHT22;47128;47.530;8.584;2023-04-25T00:57:02;9.10;99.90
61255;DHT22;47128;47.530;8.584;2023-04-25T01:05:25;9.10;99.90
61255;DHT22;47128;47.530;8.584;2023-04-25T01:08:00;9.10;99.90
61255;DHT22;47128;47.530;8.584;2023-04-25T01:10:26;9.20;99.90
61255;DHT22;47128;47.530;8.584;2023-04-25T01:12:52;9.20;99.90
61255;DHT22;47128;47.530;8.584;2023-04-25T01:24:26;9.30;99.90
61255;DHT22;47128;47.530;8.584;2023-04-25T01:29:54;9.20;99.90
61255;DHT22;47128;47.530;8.584;2023-04-25T01:35:23;9.00;99.90
61255;DHT22;47128;47.530;8.584;2023-04-25T01:40:53;8.80;99.90
61255;DHT22;47128;47.530;8.584;2023-04-25T01:43:19;8.70;99.90
61255;DHT22;47128;47.530;8.584;2023-04-25T01:48:29;8.60;99.90
61255;DHT22;47128;47.530;8.584;2023-04-25T01:53:55;8.60;99.90
61255;DHT22;47128;47.530;8.584;2023-04-25T02:02:43;8.60;99.90
61255;DHT22;47128;47.530;8.584;2023-04-25T02:08:12;8.60;99.90
61255;DHT22;47128;47.530;8.584;2023-04-25T02:16:44;8.50;99.90
61255;DHT22;47128;47.530;8.584;2023-04-25T02:22:13;8.50;99.90
61255;DHT22;47128;47.530;8.584;2023-04-25T02:30:39;8.60;99.90
61255;DHT22;47128;47.530;8.584;2023-04-25T02:36:08;8.70;99.90
61255;DHT22;47128;47.530;8.584;2023-04-25T02:41:47;8.60;99.90
61255;DHT22;47128;47.530;8.584;2023-04-25T02:44:12;8.60;99.90
61255;DHT22;47128;47.530;8.584;2023-04-25T02:46:38;8.50;99.90
61255;DHT22;47128;47.530;8.584;2023-04-25T02:49:03;8.50;99.90
61255;DHT22;47128;47.530;8.584;2023-04-25T02:51:29;8.50;99.90
61255;DHT22;47128;47.530;8.584;2023-04-25T02:57:13;8.40;99.90
61255;DHT22;47128;47.530;8.584;2023-04-25T02:59:39;8.40;99.90
61255;DHT22;47128;47.530;8.584;2023-04-25T03:02:04;8.30;99.90
61255;DHT22;47128;47.530;8.584;2023-04-25T03:10:22;8.00;99.90
61255;DHT22;47128;47.530;8.584;2023-04-25T03:15:45;7.90;99.90
61255;DHT22;47128;47.530;8.584;2023-04-25T03:18:10;7.70;99.90
61255;DHT22;47128;47.530;8.584;2023-04-25T03:29:33;7.50;99.90
61255;DHT22;47128;47.530;8.584;2023-04-25T03:35:02;7.30;99.90
61255;DHT22;47128;47.530;8.584;2023-04-25T03:40:40;7.10;99.90
61255;DHT22;47128;47.530;8.584;2023-04-25T03:43:06;7.00;99.90
61255;DHT22;47128;47.530;8.584;2023-04-25T03:48:41;7.00;99.90
61255;DHT22;47128;47.530;8.584;2023-04-25T03:54:25;7.00;99.90
61255;DHT22;47128;47.530;8.584;2023-04-25T03:56:51;7.00;99.90
61255;DHT22;47128;47.530;8.584;2023-04-25T04:05:29;6.90;99.90
61255;DHT22;47128;47.530;8.584;2023-04-25T04:07:55;6.90;99.90
61255;DHT22;47128;47.530;8.584;2023-04-25T04:16:26;6.90;99.90
61255;DHT22;47128;47.530;8.584;2023-04-25T04:19:01;6.80;99.90
61255;DHT22;47128;47.530;8.584;2023-04-25T04:21:27;6.80;99.90
61255;DHT22;47128;47.530;8.584;2023-04-25T04:23:53;6.80;99.90
61255;DHT22;47128;47.530;8.584;2023-04-25T04:26:20;6.90;99.90
61255;DHT22;47128;47.530;8.584;2023-04-25T04:28:48;6.80;99.90
61255;DHT22;47128;47.530;8.584;2023-04-25T04:31:15;6.80;99.90
61255;DHT22;47128;47.530;8.584;2023-04-25T04:33:43;6.80;99.90
61255;DHT22;47128;47.530;8.584;2023-04-25T04:36:09;6.70;99.90
61255;DHT22;47128;47.530;8.584;2023-04-25T04:38:35;6.70;99.90
61255;DHT22;47128;47.530;8.584;2023-04-25T04:41:01;6.70;99.90
61255;DHT22;47128;47.530;8.584;2023-04-25T04:43:27;6.70;99.90
61255;DHT22;47128;47.530;8.584;2023-04-25T04:45:53;6.80;99.90
61255;DHT22;47128;47.530;8.584;2023-04-25T04:48:21;6.70;99.90
61255;DHT22;47128;47.530;8.584;2023-04-25T04:50:47;6.80;99.90
61255;DHT22;47128;47.530;8.584;2023-04-25T04:53:12;6.80;99.90
61255;DHT22;47128;47.530;8.584;2023-04-25T04:55:39;6.90;99.90
61255;DHT22;47128;47.530;8.584;2023-04-25T04:58:06;6.80;99.90
61255;DHT22;47128;47.530;8.584;2023-04-25T05:00:32;6.80;99.90
61255;DHT22;47128;47.530;8.584;2023-04-25T05:02:58;6.80;99.90
61255;DHT22;47128;47.530;8.584;2023-04-25T05:05:23;6.80;99.90
61255;DHT22;47128;47.530;8.584;2023-04-25T05:07:49;6.80;99.90
61255;DHT22;47128;47.530;8.584;2023-04-25T05:10:15;6.80;99.90
61255;DHT22;47128;47.530;8.584;2023-04-25T05:12:40;6.80;99.90
61255;DHT22;47128;47.530;8.584;2023-04-25T05:15:06;6.90;99.90
61255;DHT22;47128;47.530;8.584;2023-04-25T05:17:31;7.00;99.90
61255;DHT22;47128;47.530;8.584;2023-04-25T05:19:58;7.00;99.90
61255;DHT22;47128;47.530;8.584;2023-04-25T05:22:23;7.10;99.90
61255;DHT22;47128;47.530;8.584;2023-04-25T05:27:52;7.30;99.90
61255;DHT22;47128;47.530;8.584;2023-04-25T05:30:18;7.40;99.90
61255;DHT22;47128;47.530;8.584;2023-04-25T05:32:43;7.40;99.90
61255;DHT22;47128;47.530;8.584;2023-04-25T05:35:08;7.50;99.90
61255;DHT22;47128;47.530;8.584;2023-04-25T05:37:34;7.70;99.90
61255;DHT22;47128;47.530;8.584;2023-04-25T05:43:05;8.90;99.90
61255;DHT22;47128;47.530;8.584;2023-04-25T05:45:30;9.70;99.90
61255;DHT22;47128;47.530;8.584;2023-04-25T05:47:56;9.90;99.90
61255;DHT22;47128;47.530;8.584;2023-04-25T05:53:24;9.30;99.90
61255;DHT22;47128;47.530;8.584;2023-04-25T05:58:56;8.80;99.90
61255;DHT22;47128;47.530;8.584;2023-04-25T06:01:22;8.90;99.90
61255;DHT22;47128;47.530;8.584;2023-04-25T06:03:48;8.90;99.90
61255;DHT22;47128;47.530;8.584;2023-04-25T06:06:13;8.90;99.90
61255;DHT22;47128;47.530;8.584;2023-04-25T06:08:39;8.80;99.90
61255;DHT22;47128;47.530;8.584;2023-04-25T06:11:05;8.90;99.90
61255;DHT22;47128;47.530;8.584;2023-04-25T06:13:31;9.10;99.90
61255;DHT22;47128;47.530;8.584;2023-04-25T06:15:57;9.00;99.90
61255;DHT22;47128;47.530;8.584;2023-04-25T06:18:22;9.00;99.90
61255;DHT22;47128;47.530;8.584;2023-04-25T06:20:48;9.00;99.90
61255;DHT22;47128;47.530;8.584;2023-04-25T06:23:13;9.10;99.90
61255;DHT22;47128;47.530;8.584;2023-04-25T06:25:39;9.10;99.90
61255;DHT22;47128;47.530;8.584;2023-04-25T06:28:05;9.20;99.90
61255;DHT22;47128;47.530;8.584;2023-04-25T06:30:30;9.00;99.90
61255;DHT22;47128;47.530;8.584;2023-04-25T06:32:56;9.00;99.90
61255;DHT22;47128;47.530;8.584;2023-04-25T06:35:22;9.00;99.90
61255;DHT22;47128;47.530;8.584;2023-04-25T06:37:47;9.00;99.90
61255;DHT22;47128;47.530;8.584;2023-04-25T06:40:13;8.90;99.90
61255;DHT22;47128;47.530;8.584;2023-04-25T06:42:38;8.80;99.90
61255;DHT22;47128;47.530;8.584;2023-04-25T06:45:04;8.70;99.90
61255;DHT22;47128;47.530;8.584;2023-04-25T06:47:30;8.70;99.90
61255;DHT22;47128;47.530;8.584;2023-04-25T06:49:56;8.50;99.90
61255;DHT22;47128;47.530;8.584;2023-04-25T06:52:21;8.40;99.90
61255;DHT22;47128;47.530;8.584;2023-04-25T06:54:47;8.40;99.90
61255;DHT22;47128;47.530;8.584;2023-04-25T06:57:13;8.40;99.90
61255;DHT22;47128;47.530;8.584;2023-04-25T06:59:40;8.30;99.90
61255;DHT22;47128;47.530;8.584;2023-04-25T07:02:06;8.30;99.90
61255;DHT22;47128;47.530;8.584;2023-04-25T07:04:33;8.30;99.90
61255;DHT22;47128;47.530;8.584;2023-04-25T07:06:59;8.30;99.90
61255;DHT22;47128;47.530;8.584;2023-04-25T07:09:26;8.30;99.90
61255;DHT22;47128;47.530;8.584;2023-04-25T07:11:52;8.40;99.90
61255;DHT22;47128;47.530;8.584;2023-04-25T07:14:17;8.40;99.90
61255;DHT22;47128;47.530;8.584;2023-04-25T07:16:43;8.40;99.90
61255;DHT22;47128;47.530;8.584;2023-04-25T07:19:08;8.50;99.90
61255;DHT22;47128;47.530;8.584;2023-04-25T07:24:37;8.50;99.90
61255;DHT22;47128;47.530;8.584;2023-04-25T07:27:03;8.50;99.90
61255;DHT22;47128;47.530;8.584;2023-04-25T07:29:30;8.50;99.90
61255;DHT22;47128;47.530;8.584;2023-04-25T07:31:57;8.50;99.90
61255;DHT22;47128;47.530;8.584;2023-04-25T07:34:22;8.60;99.90
61255;DHT22;47128;47.530;8.584;2023-04-25T07:36:48;8.60;99.90
61255;DHT22;47128;47.530;8.584;2023-04-25T07:39:13;8.60;99.90
61255;DHT22;47128;47.530;8.584;2023-04-25T07:41:39;8.70;99.90
61255;DHT22;47128;47.530;8.584;2023-04-25T07:44:07;8.60;99.90
61255;DHT22;47128;47.530;8.584;2023-04-25T07:46:33;8.70;99.90
61255;DHT22;47128;47.530;8.584;2023-04-25T07:48:59;8.80;99.90
61255;DHT22;47128;47.530;8.584;2023-04-25T07:51:24;8.80;99.90
61255;DHT22;47128;47.530;8.584;2023-04-25T07:53:51;8.80;99.90
61255;DHT22;47128;47.530;8.584;2023-04-25T07:56:16;8.80;99.90
61255;DHT22;47128;47.530;8.584;2023-04-25T08:07:51;8.50;99.90
61255;DHT22;47128;47.530;8.584;2023-04-25T08:10:17;8.60;99.90
61255;DHT22;47128;47.530;8.584;2023-04-25T08:12:43;8.70;99.90
61255;DHT22;47128;47.530;8.584;2023-04-25T08:15:10;8.70;99.90
61255;DHT22;47128;47.530;8.584;2023-04-25T08:17:36;8.80;99.90
61255;DHT22;47128;47.530;8.584;2023-04-25T08:20:02;8.80;99.90
61255;DHT22;47128;47.530;8.584;2023-04-25T08:22:31;8.80;99.90
61255;DHT22;47128;47.530;8.584;2023-04-25T08:24:56;8.90;99.90
61255;DHT22;47128;47.530;8.584;2023-04-25T08:27:22;8.90;99.90
61255;DHT22;47128;47.530;8.584;2023-04-25T08:29:50;8.90;99.90
61255;DHT22;47128;47.530;8.584;2023-04-25T08:32:20;9.00;99.90
61255;DHT22;47128;47.530;8.584;2023-04-25T08:34:47;9.10;99.90
61255;DHT22;47128;47.530;8.584;2023-04-25T08:37:13;9.10;99.90
61255;DHT22;47128;47.530;8.584;2023-04-25T08:39:41;9.10;99.90
61255;DHT22;47128;47.530;8.584;2023-04-25T08:44:37;9.00;99.90
61255;DHT22;47128;47.530;8.584;2023-04-25T08:47:03;9.10;99.90
61255;DHT22;47128;47.530;8.584;2023-04-25T08:49:36;9.10;99.90
61255;DHT22;47128;47.530;8.584;2023-04-25T08:52:05;9.30;99.90
61255;DHT22;47128;47.530;8.584;2023-04-25T08:54:33;9.30;99.90
61255;DHT22;47128;47.530;8.584;2023-04-25T08:59:28;9.20;99.90
61255;DHT22;47128;47.530;8.584;2023-04-25T09:01:54;9.20;99.90
61255;DHT22;47128;47.530;8.584;2023-04-25T09:04:20;9.10;99.90
61255;DHT22;47128;47.530;8.584;2023-04-25T09:06:46;9.00;99.90
61255;DHT22;47128;47.530;8.584;2023-04-25T09:09:12;9.00;99.90
61255;DHT22;47128;47.530;8.584;2023-04-25T09:11:50;8.90;99.90
61255;DHT22;47128;47.530;8.584;2023-04-25T09:23:41;9.80;99.90
61255;DHT22;47128;47.530;8.584;2023-04-25T09:29:10;10.20;99.90
61255;DHT22;47128;47.530;8.584;2023-04-25T09:34:40;10.60;99.90
61255;DHT22;47128;47.530;8.584;2023-04-25T09:37:07;10.40;99.90
61255;DHT22;47128;47.530;8.584;2023-04-25T09:39:34;10.30;99.90
61255;DHT22;47128;47.530;8.584;2023-04-25T09:42:00;10.30;99.90
61255;DHT22;47128;47.530;8.584;2023-04-25T09:44:25;10.20;99.90
61255;DHT22;47128;47.530;8.584;2023-04-25T09:46:52;10.20;99.90
61255;DHT22;47128;47.530;8.584;2023-04-25T09:49:21;10.10;99.90
61255;DHT22;47128;47.530;8.584;2023-04-25T10:00:43;10.80;99.90
61255;DHT22;47128;47.530;8.584;2023-04-25T10:03:08;11.00;99.90
61255;DHT22;47128;47.530;8.584;2023-04-25T10:05:35;11.00;99.90
61255;DHT22;47128;47.530;8.584;2023-04-25T10:08:02;11.00;99.90
61255;DHT22;47128;47.530;8.584;2023-04-25T10:16:35;10.50;99.90
61255;DHT22;47128;47.530;8.584;2023-04-25T10:19:01;10.60;99.90
61255;DHT22;47128;47.530;8.584;2023-04-25T10:21:28;11.10;99.90
61255;DHT22;47128;47.530;8.584;2023-04-25T10:23:56;11.90;98.90
61255;DHT22;47128;47.530;8.584;2023-04-25T10:26:28;13.70;94.50
61255;DHT22;47128;47.530;8.584;2023-04-25T10:28:56;14.30;94.00
61255;DHT22;47128;47.530;8.584;2023-04-25T10:34:42;15.80;91.10
61255;DHT22;47128;47.530;8.584;2023-04-25T10:39:56;15.80;88.80
61255;DHT22;47128;47.530;8.584;2023-04-25T10:42:22;14.50;91.00
61255;DHT22;47128;47.530;8.584;2023-04-25T10:45:02;13.80;92.60
61255;DHT22;47128;47.530;8.584;2023-04-25T10:47:36;14.00;92.80
61255;DHT22;47128;47.530;8.584;2023-04-25T10:50:09;14.30;91.90
61255;DHT22;47128;47.530;8.584;2023-04-25T10:52:35;14.30;90.60
61255;DHT22;47128;47.530;8.584;2023-04-25T10:55:03;14.40;90.80
61255;DHT22;47128;47.530;8.584;2023-04-25T11:00:14;13.50;92.30
61255;DHT22;47128;47.530;8.584;2023-04-25T11:02:53;13.00;92.40
61255;DHT22;47128;47.530;8.584;2023-04-25T11:05:29;12.80;92.40
61255;DHT22;47128;47.530;8.584;2023-04-25T11:08:01;12.90;93.30
61255;DHT22;47128;47.530;8.584;2023-04-25T11:13:31;12.90;92.90
61255;DHT22;47128;47.530;8.584;2023-04-25T11:15:57;13.00;93.60
61255;DHT22;47128;47.530;8.584;2023-04-25T11:18:25;12.90;92.90
61255;DHT22;47128;47.530;8.584;2023-04-25T11:20:52;12.60;93.30
61255;DHT22;47128;47.530;8.584;2023-04-25T11:23:18;12.50;94.10
61255;DHT22;47128;47.530;8.584;2023-04-25T11:25:52;12.60;93.50
61255;DHT22;47128;47.530;8.584;2023-04-25T11:28:22;12.90;93.90
61255;DHT22;47128;47.530;8.584;2023-04-25T11:30:48;13.30;93.00
61255;DHT22;47128;47.530;8.584;2023-04-25T11:33:15;13.40;92.00
61255;DHT22;47128;47.530;8.584;2023-04-25T11:39:02;13.20;91.20
61255;DHT22;47128;47.530;8.584;2023-04-25T11:41:29;13.20;90.80
61255;DHT22;47128;47.530;8.584;2023-04-25T11:43:59;13.30;91.20
61255;DHT22;47128;47.530;8.584;2023-04-25T11:46:25;13.40;90.80
61255;DHT22;47128;47.530;8.584;2023-04-25T11:48:51;13.30;90.90
61255;DHT22;47128;47.530;8.584;2023-04-25T11:57:18;13.10;91.50
61255;DHT22;47128;47.530;8.584;2023-04-25T11:59:45;12.80;91.60
61255;DHT22;47128;47.530;8.584;2023-04-25T12:02:23;12.70;91.10
61255;DHT22;47128;47.530;8.584;2023-04-25T12:04:50;12.70;91.50
61255;DHT22;47128;47.530;8.584;2023-04-25T12:07:15;12.80;91.30
61255;DHT22;47128;47.530;8.584;2023-04-25T12:09:41;12.60;91.50
61255;DHT22;47128;47.530;8.584;2023-04-25T12:12:09;12.60;91.90
61255;DHT22;47128;47.530;8.584;2023-04-25T12:14:35;12.20;91.50
61255;DHT22;47128;47.530;8.584;2023-04-25T12:23:07;11.70;94.00
61255;DHT22;47128;47.530;8.584;2023-04-25T12:25:37;11.30;97.00
61255;DHT22;47128;47.530;8.584;2023-04-25T12:28:13;11.50;96.70
61255;DHT22;47128;47.530;8.584;2023-04-25T12:33:28;11.80;95.90
61255;DHT22;47128;47.530;8.584;2023-04-25T12:35:54;12.00;95.20
61255;DHT22;47128;47.530;8.584;2023-04-25T12:38:25;12.10;95.10
61255;DHT22;47128;47.530;8.584;2023-04-25T12:40:51;12.30;93.70
61255;DHT22;47128;47.530;8.584;2023-04-25T12:43:17;12.20;93.80
61255;DHT22;47128;47.530;8.584;2023-04-25T12:45:44;12.20;92.70
61255;DHT22;47128;47.530;8.584;2023-04-25T12:48:17;12.10;92.90
61255;DHT22;47128;47.530;8.584;2023-04-25T12:53:31;12.00;92.40
61255;DHT22;47128;47.530;8.584;2023-04-25T13:02:15;12.30;92.60
61255;DHT22;47128;47.530;8.584;2023-04-25T13:04:40;12.40;92.70
61255;DHT22;47128;47.530;8.584;2023-04-25T13:07:06;12.40;92.80
61255;DHT22;47128;47.530;8.584;2023-04-25T13:09:32;12.20;92.50
61255;DHT22;47128;47.530;8.584;2023-04-25T13:11:59;12.20;92.90
61255;DHT22;47128;47.530;8.584;2023-04-25T13:14:25;12.10;91.90
61255;DHT22;47128;47.530;8.584;2023-04-25T13:16:53;12.00;92.30
61255;DHT22;47128;47.530;8.584;2023-04-25T13:19:19;11.90;92.40
61255;DHT22;47128;47.530;8.584;2023-04-25T13:21:50;11.60;91.80
61255;DHT22;47128;47.530;8.584;2023-04-25T13:24:16;11.40;94.40
61255;DHT22;47128;47.530;8.584;2023-04-25T13:26:41;11.10;95.10
61255;DHT22;47128;47.530;8.584;2023-04-25T13:29:07;10.90;95.00
61255;DHT22;47128;47.530;8.584;2023-04-25T13:31:40;10.80;95.20
61255;DHT22;47128;47.530;8.584;2023-04-25T13:37:17;10.90;97.20
61255;DHT22;47128;47.530;8.584;2023-04-25T13:42:46;11.60;96.30
61255;DHT22;47128;47.530;8.584;2023-04-25T13:45:12;11.80;94.00
61255;DHT22;47128;47.530;8.584;2023-04-25T13:53:41;11.70;94.90
61255;DHT22;47128;47.530;8.584;2023-04-25T13:56:07;11.80;95.20
61255;DHT22;47128;47.530;8.584;2023-04-25T13:58:33;11.90;95.50
61255;DHT22;47128;47.530;8.584;2023-04-25T14:01:03;12.00;94.40
61255;DHT22;47128;47.530;8.584;2023-04-25T14:03:31;12.20;95.00
61255;DHT22;47128;47.530;8.584;2023-04-25T14:12:04;11.80;94.90
61255;DHT22;47128;47.530;8.584;2023-04-25T14:23:43;11.50;95.50
61255;DHT22;47128;47.530;8.584;2023-04-25T14:26:13;11.40;96.40
61255;DHT22;47128;47.530;8.584;2023-04-25T14:37:39;12.00;96.10
61255;DHT22;47128;47.530;8.584;2023-04-25T14:43:26;12.50;94.80
61255;DHT22;47128;47.530;8.584;2023-04-25T14:45:52;12.80;94.80
61255;DHT22;47128;47.530;8.584;2023-04-25T14:48:18;13.00;94.30
61255;DHT22;47128;47.530;8.584;2023-04-25T14:50:45;13.20;94.40
61255;DHT22;47128;47.530;8.584;2023-04-25T14:53:11;13.40;93.70
61255;DHT22;47128;47.530;8.584;2023-04-25T14:55:38;13.50;93.40
61255;DHT22;47128;47.530;8.584;2023-04-25T14:58:03;13.20;92.80
61255;DHT22;47128;47.530;8.584;2023-04-25T15:00:29;13.10;93.00
61255;DHT22;47128;47.530;8.584;2023-04-25T15:09:03;13.20;92.60
61255;DHT22;47128;47.530;8.584;2023-04-25T15:14:32;13.10;91.90
61255;DHT22;47128;47.530;8.584;2023-04-25T15:16:59;12.90;92.20
61255;DHT22;47128;47.530;8.584;2023-04-25T15:19:25;12.80;92.20
61255;DHT22;47128;47.530;8.584;2023-04-25T15:24:54;12.70;92.20
61255;DHT22;47128;47.530;8.584;2023-04-25T15:27:21;12.70;92.40
61255;DHT22;47128;47.530;8.584;2023-04-25T15:29:47;12.50;92.40
61255;DHT22;47128;47.530;8.584;2023-04-25T15:32:12;11.70;94.00
61255;DHT22;47128;47.530;8.584;2023-04-25T15:37:41;10.40;99.90
61255;DHT22;47128;47.530;8.584;2023-04-25T15:42:37;9.50;99.90
61255;DHT22;47128;47.530;8.584;2023-04-25T15:45:04;9.20;99.90
61255;DHT22;47128;47.530;8.584;2023-04-25T15:47:30;9.00;99.90
61255;DHT22;47128;47.530;8.584;2023-04-25T15:49:55;9.10;99.90
61255;DHT22;47128;47.530;8.584;2023-04-25T15:55:24;9.50;99.90
61255;DHT22;47128;47.530;8.584;2023-04-25T15:57:51;9.80;99.90
61255;DHT22;47128;47.530;8.584;2023-04-25T16:00:17;9.90;99.90
61255;DHT22;47128;47.530;8.584;2023-04-25T16:02:44;10.00;99.90
61255;DHT22;47128;47.530;8.584;2023-04-25T16:05:10;10.20;99.90
61255;DHT22;47128;47.530;8.584;2023-04-25T16:07:37;10.30;99.90
61255;DHT22;47128;47.530;8.584;2023-04-25T16:10:03;10.50;99.90
61255;DHT22;47128;47.530;8.584;2023-04-25T16:12:29;10.80;99.90
61255;DHT22;47128;47.530;8.584;2023-04-25T16:14:55;11.20;99.90
61255;DHT22;47128;47.530;8.584;2023-04-25T16:17:22;11.40;99.90
61255;DHT22;47128;47.530;8.584;2023-04-25T16:19:48;11.30;99.90
61255;DHT22;47128;47.530;8.584;2023-04-25T16:22:14;11.10;99.90
61255;DHT22;47128;47.530;8.584;2023-04-25T16:24:41;10.90;99.90
61255;DHT22;47128;47.530;8.584;2023-04-25T16:27:07;10.90;99.90
61255;DHT22;47128;47.530;8.584;2023-04-25T16:29:33;10.80;99.90
61255;DHT22;47128;47.530;8.584;2023-04-25T16:31:59;10.70;99.90
61255;DHT22;47128;47.530;8.584;2023-04-25T16:34:24;10.70;99.90
61255;DHT22;47128;47.530;8.584;2023-04-25T16:36:52;10.60;99.90
61255;DHT22;47128;47.530;8.584;2023-04-25T16:39:20;10.60;99.90
61255;DHT22;47128;47.530;8.584;2023-04-25T16:41:46;10.50;99.90
61255;DHT22;47128;47.530;8.584;2023-04-25T16:44:12;10.40;99.90
61255;DHT22;47128;47.530;8.584;2023-04-25T16:46:37;10.40;99.90
61255;DHT22;47128;47.530;8.584;2023-04-25T16:49:03;10.40;99.90
61255;DHT22;47128;47.530;8.584;2023-04-25T16:51:29;10.40;99.90
61255;DHT22;47128;47.530;8.584;2023-04-25T16:53:57;10.40;99.90
61255;DHT22;47128;47.530;8.584;2023-04-25T16:56:22;10.50;99.90
61255;DHT22;47128;47.530;8.584;2023-04-25T16:58:49;10.60;99.90
61255;DHT22;47128;47.530;8.584;2023-04-25T17:01:16;10.70;99.90
61255;DHT22;47128;47.530;8.584;2023-04-25T17:03:44;10.60;99.90
61255;DHT22;47128;47.530;8.584;2023-04-25T17:06:10;10.60;99.90
61255;DHT22;47128;47.530;8.584;2023-04-25T17:08:36;10.70;99.90
61255;DHT22;47128;47.530;8.584;2023-04-25T17:11:02;10.60;99.90
61255;DHT22;47128;47.530;8.584;2023-04-25T17:13:28;10.60;99.90
61255;DHT22;47128;47.530;8.584;2023-04-25T17:15:53;10.60;99.90
61255;DHT22;47128;47.530;8.584;2023-04-25T17:18:19;10.60;99.90
61255;DHT22;47128;47.530;8.584;2023-04-25T17:20:44;10.50;99.90
61255;DHT22;47128;47.530;8.584;2023-04-25T17:23:10;10.50;99.90
61255;DHT22;47128;47.530;8.584;2023-04-25T17:25:37;10.50;99.90
61255;DHT22;47128;47.530;8.584;2023-04-25T17:28:03;10.50;99.90
61255;DHT22;47128;47.530;8.584;2023-04-25T17:30:28;10.40;99.90
61255;DHT22;47128;47.530;8.584;2023-04-25T17:32:54;10.40;99.90
61255;DHT22;47128;47.530;8.584;2023-04-25T17:35:20;10.30;99.90
61255;DHT22;47128;47.530;8.584;2023-04-25T17:37:47;10.20;99.90
61255;DHT22;47128;47.530;8.584;2023-04-25T17:40:13;10.10;99.90
61255;DHT22;47128;47.530;8.584;2023-04-25T17:42:38;10.20;99.90
61255;DHT22;47128;47.530;8.584;2023-04-25T17:45:05;10.20;99.90
61255;DHT22;47128;47.530;8.584;2023-04-25T17:47:31;10.10;99.90
61255;DHT22;47128;47.530;8.584;2023-04-25T17:49:56;10.00;99.90
61255;DHT22;47128;47.530;8.584;2023-04-25T17:52:22;9.90;99.90
61255;DHT22;47128;47.530;8.584;2023-04-25T17:54:48;10.00;99.90
61255;DHT22;47128;47.530;8.584;2023-04-25T17:57:14;10.00;99.90
61255;DHT22;47128;47.530;8.584;2023-04-25T17:59:40;9.90;99.90
61255;DHT22;47128;47.530;8.584;2023-04-25T18:02:06;9.90;99.90
61255;DHT22;47128;47.530;8.584;2023-04-25T18:04:32;9.80;99.90
61255;DHT22;47128;47.530;8.584;2023-04-25T18:06:59;9.70;99.90
61255;DHT22;47128;47.530;8.584;2023-04-25T18:09:25;9.80;99.90
61255;DHT22;47128;47.530;8.584;2023-04-25T18:11:51;9.70;99.90
61255;DHT22;47128;47.530;8.584;2023-04-25T18:14:18;9.60;99.90
61255;DHT22;47128;47.530;8.584;2023-04-25T18:16:45;9.60;99.90
61255;DHT22;47128;47.530;8.584;2023-04-25T18:19:11;9.60;99.90
61255;DHT22;47128;47.530;8.584;2023-04-25T18:21:40;9.50;99.90
61255;DHT22;47128;47.530;8.584;2023-04-25T18:24:07;9.40;99.90
61255;DHT22;47128;47.530;8.584;2023-04-25T18:26:36;9.40;99.90
61255;DHT22;47128;47.530;8.584;2023-04-25T18:29:02;9.50;99.90
61255;DHT22;47128;47.530;8.584;2023-04-25T18:31:27;9.50;99.90
61255;DHT22;47128;47.530;8.584;2023-04-25T18:33:54;9.50;99.90
61255;DHT22;47128;47.530;8.584;2023-04-25T18:36:20;9.50;99.90
61255;DHT22;47128;47.530;8.584;2023-04-25T18:38:45;9.40;99.90
61255;DHT22;47128;47.530;8.584;2023-04-25T18:41:15;9.30;99.90
61255;DHT22;47128;47.530;8.584;2023-04-25T18:43:41;9.20;99.90
61255;DHT22;47128;47.530;8.584;2023-04-25T18:46:08;9.10;99.90
61255;DHT22;47128;47.530;8.584;2023-04-25T18:48:34;9.10;99.90
61255;DHT22;47128;47.530;8.584;2023-04-25T18:51:00;9.00;99.90
61255;DHT22;47128;47.530;8.584;2023-04-25T18:53:26;9.00;99.90
61255;DHT22;47128;47.530;8.584;2023-04-25T18:55:51;8.90;99.90
61255;DHT22;47128;47.530;8.584;2023-04-25T18:58:17;8.90;99.90
61255;DHT22;47128;47.530;8.584;2023-04-25T19:00:43;8.90;99.90
61255;DHT22;47128;47.530;8.584;2023-04-25T19:03:09;8.90;99.90
61255;DHT22;47128;47.530;8.584;2023-04-25T19:05:35;8.90;99.90
61255;DHT22;47128;47.530;8.584;2023-04-25T19:08:00;8.80;99.90
61255;DHT22;47128;47.530;8.584;2023-04-25T19:10:26;8.70;99.90
61255;DHT22;47128;47.530;8.584;2023-04-25T19:12:53;8.70;99.90
61255;DHT22;47128;47.530;8.584;2023-04-25T19:15:19;8.70;99.90
61255;DHT22;47128;47.530;8.584;2023-04-25T19:17:44;8.70;99.90
61255;DHT22;47128;47.530;8.584;2023-04-25T19:20:11;8.70;99.90
61255;DHT22;47128;47.530;8.584;2023-04-25T19:22:36;8.70;99.90
61255;DHT22;47128;47.530;8.584;2023-04-25T19:25:02;8.70;99.90
61255;DHT22;47128;47.530;8.584;2023-04-25T19:27:27;8.70;99.90
61255;DHT22;47128;47.530;8.584;2023-04-25T19:29:53;8.70;99.90
61255;DHT22;47128;47.530;8.584;2023-04-25T19:32:24;8.70;99.90
61255;DHT22;47128;47.530;8.584;2023-04-25T19:34:49;8.70;99.90
61255;DHT22;47128;47.530;8.584;2023-04-25T19:37:17;8.70;99.90
61255;DHT22;47128;47.530;8.584;2023-04-25T19:39:42;8.60;99.90
61255;DHT22;47128;47.530;8.584;2023-04-25T19:42:09;8.60;99.90
61255;DHT22;47128;47.530;8.584;2023-04-25T19:44:35;8.60;99.90
61255;DHT22;47128;47.530;8.584;2023-04-25T19:47:01;8.60;99.90
61255;DHT22;47128;47.530;8.584;2023-04-25T19:49:26;8.70;99.90
61255;DHT22;47128;47.530;8.584;2023-04-25T19:51:52;8.70;99.90
61255;DHT22;47128;47.530;8.584;2023-04-25T19:54:18;8.70;99.90
61255;DHT22;47128;47.530;8.584;2023-04-25T19:56:47;8.70;99.90
61255;DHT22;47128;47.530;8.584;2023-04-25T19:59:12;8.70;99.90
61255;DHT22;47128;47.530;8.584;2023-04-25T20:01:38;8.60;99.90
61255;DHT22;47128;47.530;8.584;2023-04-25T20:04:03;8.50;99.90
61255;DHT22;47128;47.530;8.584;2023-04-25T20:06:29;8.60;99.90
61255;DHT22;47128;47.530;8.584;2023-04-25T20:08:54;8.60;99.90
61255;DHT22;47128;47.530;8.584;2023-04-25T20:11:20;8.60;99.90
61255;DHT22;47128;47.530;8.584;2023-04-25T20:13:46;8.50;99.90
61255;DHT22;47128;47.530;8.584;2023-04-25T20:16:12;8.50;99.90
61255;DHT22;47128;47.530;8.584;2023-04-25T20:18:44;8.50;99.90
61255;DHT22;47128;47.530;8.584;2023-04-25T20:21:10;8.60;99.90
61255;DHT22;47128;47.530;8.584;2023-04-25T20:23:36;8.50;99.90
61255;DHT22;47128;47.530;8.584;2023-04-25T20:26:02;8.50;99.90
61255;DHT22;47128;47.530;8.584;2023-04-25T20:28:27;8.50;99.90
61255;DHT22;47128;47.530;8.584;2023-04-25T20:30:53;8.50;99.90
61255;DHT22;47128;47.530;8.584;2023-04-25T20:33:19;8.40;99.90
61255;DHT22;47128;47.530;8.584;2023-04-25T20:35:46;8.40;99.90